sensor_id;sensor_type;location;lat;lon;timestamp;P1;durP1;ratioP1;P2;durP2;ratioP2
1380;SDS011;684;48.342;10.096;2022-12-07T00:01:32;16.43;;;10.50;;
1380;SDS011;684;48.342;10.096;2022-12-07T00:04:01;14.70;;;10.30;;
1380;SDS011;684;48.342;10.096;2022-12-07T00:06:30;19.20;;;12.20;;
1380;SDS011;684;48.342;10.096;2022-12-07T00:08:57;19.30;;;12.80;;
1380;SDS011;684;48.342;10.096;2022-12-07T00:11:24;25.50;;;14.37;;
1380;SDS011;684;48.342;10.096;2022-12-07T00:13:52;23.10;;;15.90;;
1380;SDS011;684;48.342;10.096;2022-12-07T00:16:22;25.30;;;16.37;;
1380;SDS011;684;48.342;10.096;2022-12-07T00:18:49;25.87;;;17.33;;
1380;SDS011;684;48.342;10.096;2022-12-07T00:21:17;24.73;;;17.70;;
1380;SDS011;684;48.342;10.096;2022-12-07T00:23:46;28.30;;;19.20;;
1380;SDS011;684;48.342;10.096;2022-12-07T00:26:15;29.40;;;17.30;;
1380;SDS011;684;48.342;10.096;2022-12-07T00:28:44;25.07;;;16.60;;
1380;SDS011;684;48.342;10.096;2022-12-07T00:31:12;24.10;;;16.47;;
1380;SDS011;684;48.342;10.096;2022-12-07T00:33:41;23.07;;;15.40;;
1380;SDS011;684;48.342;10.096;2022-12-07T00:36:09;22.87;;;16.53;;
1380;SDS011;684;48.342;10.096;2022-12-07T00:38:37;24.73;;;15.77;;
1380;SDS011;684;48.342;10.096;2022-12-07T00:41:05;23.73;;;14.37;;
1380;SDS011;684;48.342;10.096;2022-12-07T00:43:34;21.50;;;14.27;;
1380;SDS011;684;48.342;10.096;2022-12-07T00:46:00;20.50;;;14.03;;
1380;SDS011;684;48.342;10.096;2022-12-07T00:48:27;20.30;;;14.20;;
1380;SDS011;684;48.342;10.096;2022-12-07T00:50:55;19.83;;;13.00;;
1380;SDS011;684;48.342;10.096;2022-12-07T00:53:22;21.53;;;14.23;;
1380;SDS011;684;48.342;10.096;2022-12-07T00:55:49;16.73;;;11.90;;
1380;SDS011;684;48.342;10.096;2022-12-07T00:58:17;14.97;;;10.57;;
1380;SDS011;684;48.342;10.096;2022-12-07T01:00:44;18.57;;;12.00;;
1380;SDS011;684;48.342;10.096;2022-12-07T01:03:12;19.47;;;11.20;;
1380;SDS011;684;48.342;10.096;2022-12-07T01:05:40;17.70;;;11.23;;
1380;SDS011;684;48.342;10.096;2022-12-07T01:08:17;15.47;;;10.63;;
1380;SDS011;684;48.342;10.096;2022-12-07T01:10:43;19.43;;;12.10;;
1380;SDS011;684;48.342;10.096;2022-12-07T01:13:10;17.43;;;11.10;;
1380;SDS011;684;48.342;10.096;2022-12-07T01:15:38;14.43;;;10.27;;
1380;SDS011;684;48.342;10.096;2022-12-07T01:18:06;14.30;;;9.90;;
1380;SDS011;684;48.342;10.096;2022-12-07T01:20:32;16.00;;;11.20;;
1380;SDS011;684;48.342;10.096;2022-12-07T01:22:59;14.40;;;10.30;;
1380;SDS011;684;48.342;10.096;2022-12-07T01:25:28;15.30;;;9.70;;
1380;SDS011;684;48.342;10.096;2022-12-07T01:27:55;15.83;;;10.67;;
1380;SDS011;684;48.342;10.096;2022-12-07T01:30:22;13.37;;;9.50;;
1380;SDS011;684;48.342;10.096;2022-12-07T01:32:49;16.33;;;10.50;;
1380;SDS011;684;48.342;10.096;2022-12-07T01:35:16;15.50;;;9.80;;
1380;SDS011;684;48.342;10.096;2022-12-07T01:37:42;17.47;;;11.43;;
1380;SDS011;684;48.342;10.096;2022-12-07T01:40:09;19.47;;;12.27;;
1380;SDS011;684;48.342;10.096;2022-12-07T01:42:38;18.27;;;11.93;;
1380;SDS011;684;48.342;10.096;2022-12-07T01:48:08;20.40;;;13.60;;
1380;SDS011;684;48.342;10.096;2022-12-07T01:50:36;21.17;;;14.60;;
1380;SDS011;684;48.342;10.096;2022-12-07T01:53:05;23.30;;;14.43;;
1380;SDS011;684;48.342;10.096;2022-12-07T01:55:35;28.47;;;18.17;;
1380;SDS011;684;48.342;10.096;2022-12-07T01:58:07;27.87;;;17.73;;
1380;SDS011;684;48.342;10.096;2022-12-07T02:00:35;28.67;;;18.17;;
1380;SDS011;684;48.342;10.096;2022-12-07T02:03:03;26.83;;;16.50;;
1380;SDS011;684;48.342;10.096;2022-12-07T02:05:33;29.67;;;19.87;;
1380;SDS011;684;48.342;10.096;2022-12-07T02:08:01;28.70;;;19.80;;
1380;SDS011;684;48.342;10.096;2022-12-07T02:10:30;26.90;;;18.40;;
1380;SDS011;684;48.342;10.096;2022-12-07T02:12:58;25.40;;;17.53;;
1380;SDS011;684;48.342;10.096;2022-12-07T02:15:31;25.97;;;18.03;;
1380;SDS011;684;48.342;10.096;2022-12-07T02:18:06;22.50;;;15.30;;
1380;SDS011;684;48.342;10.096;2022-12-07T02:20:40;23.60;;;15.40;;
1380;SDS011;684;48.342;10.096;2022-12-07T02:23:35;23.57;;;14.57;;
1380;SDS011;684;48.342;10.096;2022-12-07T02:26:18;22.50;;;14.60;;
1380;SDS011;684;48.342;10.096;2022-12-07T02:29:13;20.23;;;12.93;;
1380;SDS011;684;48.342;10.096;2022-12-07T02:31:45;21.37;;;14.00;;
1380;SDS011;684;48.342;10.096;2022-12-07T02:34:19;23.20;;;14.63;;
1380;SDS011;684;48.342;10.096;2022-12-07T02:36:53;20.83;;;13.90;;
1380;SDS011;684;48.342;10.096;2022-12-07T02:39:25;17.90;;;12.27;;
1380;SDS011;684;48.342;10.096;2022-12-07T02:41:58;19.20;;;12.73;;
1380;SDS011;684;48.342;10.096;2022-12-07T02:44:30;17.53;;;11.70;;
1380;SDS011;684;48.342;10.096;2022-12-07T02:46:59;22.80;;;12.13;;
1380;SDS011;684;48.342;10.096;2022-12-07T02:49:29;17.90;;;11.10;;
1380;SDS011;684;48.342;10.096;2022-12-07T02:51:57;17.70;;;12.20;;
1380;SDS011;684;48.342;10.096;2022-12-07T02:54:23;18.50;;;11.83;;
1380;SDS011;684;48.342;10.096;2022-12-07T02:56:51;18.13;;;11.77;;
1380;SDS011;684;48.342;10.096;2022-12-07T02:59:25;17.93;;;11.40;;
1380;SDS011;684;48.342;10.096;2022-12-07T03:02:05;17.63;;;11.43;;
1380;SDS011;684;48.342;10.096;2022-12-07T03:04:45;19.73;;;11.77;;
1380;SDS011;684;48.342;10.096;2022-12-07T03:07:18;15.30;;;10.83;;
1380;SDS011;684;48.342;10.096;2022-12-07T03:09:51;17.73;;;12.00;;
1380;SDS011;684;48.342;10.096;2022-12-07T03:12:26;20.20;;;12.50;;
1380;SDS011;684;48.342;10.096;2022-12-07T03:15:01;18.57;;;11.80;;
1380;SDS011;684;48.342;10.096;2022-12-07T03:17:32;20.80;;;12.60;;
1380;SDS011;684;48.342;10.096;2022-12-07T03:20:04;18.50;;;11.83;;
1380;SDS011;684;48.342;10.096;2022-12-07T03:22:33;19.60;;;12.57;;
1380;SDS011;684;48.342;10.096;2022-12-07T03:25:04;18.57;;;12.53;;
1380;SDS011;684;48.342;10.096;2022-12-07T03:27:35;19.87;;;13.40;;
1380;SDS011;684;48.342;10.096;2022-12-07T03:30:07;19.07;;;12.70;;
1380;SDS011;684;48.342;10.096;2022-12-07T03:32:38;18.37;;;11.73;;
1380;SDS011;684;48.342;10.096;2022-12-07T03:35:09;26.20;;;14.60;;
1380;SDS011;684;48.342;10.096;2022-12-07T03:37:43;19.33;;;12.70;;
1380;SDS011;684;48.342;10.096;2022-12-07T03:40:16;24.87;;;14.30;;
1380;SDS011;684;48.342;10.096;2022-12-07T03:42:49;21.20;;;13.57;;
1380;SDS011;684;48.342;10.096;2022-12-07T03:45:18;24.50;;;12.93;;
1380;SDS011;684;48.342;10.096;2022-12-07T03:47:50;24.83;;;14.13;;
1380;SDS011;684;48.342;10.096;2022-12-07T03:50:25;25.23;;;15.17;;
1380;SDS011;684;48.342;10.096;2022-12-07T03:52:58;22.57;;;13.63;;
1380;SDS011;684;48.342;10.096;2022-12-07T03:55:29;19.80;;;13.87;;
1380;SDS011;684;48.342;10.096;2022-12-07T03:58:00;19.77;;;12.60;;
1380;SDS011;684;48.342;10.096;2022-12-07T04:00:31;24.27;;;13.27;;
1380;SDS011;684;48.342;10.096;2022-12-07T04:02:58;20.97;;;12.80;;
1380;SDS011;684;48.342;10.096;2022-12-07T04:05:25;19.77;;;12.00;;
1380;SDS011;684;48.342;10.096;2022-12-07T04:07:52;19.17;;;12.10;;
1380;SDS011;684;48.342;10.096;2022-12-07T04:10:19;20.80;;;12.30;;
1380;SDS011;684;48.342;10.096;2022-12-07T04:12:46;20.90;;;12.90;;
1380;SDS011;684;48.342;10.096;2022-12-07T04:15:13;21.97;;;13.43;;
1380;SDS011;684;48.342;10.096;2022-12-07T04:17:42;19.93;;;12.43;;
1380;SDS011;684;48.342;10.096;2022-12-07T04:20:09;19.20;;;12.27;;
1380;SDS011;684;48.342;10.096;2022-12-07T04:22:37;17.10;;;11.90;;
1380;SDS011;684;48.342;10.096;2022-12-07T04:25:04;18.80;;;12.63;;
1380;SDS011;684;48.342;10.096;2022-12-07T04:27:31;21.37;;;12.97;;
1380;SDS011;684;48.342;10.096;2022-12-07T04:29:58;21.93;;;13.60;;
1380;SDS011;684;48.342;10.096;2022-12-07T04:32:25;19.97;;;13.13;;
1380;SDS011;684;48.342;10.096;2022-12-07T04:34:53;20.50;;;13.07;;
1380;SDS011;684;48.342;10.096;2022-12-07T04:37:20;21.17;;;13.83;;
1380;SDS011;684;48.342;10.096;2022-12-07T04:39:47;25.03;;;15.63;;
1380;SDS011;684;48.342;10.096;2022-12-07T04:42:14;18.83;;;12.63;;
1380;SDS011;684;48.342;10.096;2022-12-07T04:44:41;19.33;;;12.13;;
1380;SDS011;684;48.342;10.096;2022-12-07T04:47:07;19.30;;;11.97;;
1380;SDS011;684;48.342;10.096;2022-12-07T04:49:34;18.20;;;11.33;;
1380;SDS011;684;48.342;10.096;2022-12-07T04:52:02;18.47;;;12.13;;
1380;SDS011;684;48.342;10.096;2022-12-07T04:54:29;20.37;;;13.10;;
1380;SDS011;684;48.342;10.096;2022-12-07T04:56:56;20.83;;;13.30;;
1380;SDS011;684;48.342;10.096;2022-12-07T04:59:23;22.00;;;13.93;;
1380;SDS011;684;48.342;10.096;2022-12-07T05:01:50;18.10;;;12.47;;
1380;SDS011;684;48.342;10.096;2022-12-07T05:04:17;18.60;;;12.13;;
1380;SDS011;684;48.342;10.096;2022-12-07T05:06:44;19.13;;;12.00;;
1380;SDS011;684;48.342;10.096;2022-12-07T05:09:12;19.10;;;12.97;;
1380;SDS011;684;48.342;10.096;2022-12-07T05:11:39;19.87;;;12.00;;
1380;SDS011;684;48.342;10.096;2022-12-07T05:14:07;20.00;;;11.60;;
1380;SDS011;684;48.342;10.096;2022-12-07T05:16:36;18.50;;;11.47;;
1380;SDS011;684;48.342;10.096;2022-12-07T05:19:03;17.10;;;11.70;;
1380;SDS011;684;48.342;10.096;2022-12-07T05:21:30;19.40;;;11.77;;
1380;SDS011;684;48.342;10.096;2022-12-07T05:23:57;18.33;;;12.40;;
1380;SDS011;684;48.342;10.096;2022-12-07T05:26:25;18.63;;;12.63;;
1380;SDS011;684;48.342;10.096;2022-12-07T05:28:52;18.07;;;12.20;;
1380;SDS011;684;48.342;10.096;2022-12-07T05:31:20;17.87;;;11.57;;
1380;SDS011;684;48.342;10.096;2022-12-07T05:33:47;19.73;;;12.27;;
1380;SDS011;684;48.342;10.096;2022-12-07T05:36:14;16.50;;;10.13;;
1380;SDS011;684;48.342;10.096;2022-12-07T05:38:41;20.30;;;12.17;;
1380;SDS011;684;48.342;10.096;2022-12-07T05:41:08;19.37;;;12.07;;
1380;SDS011;684;48.342;10.096;2022-12-07T05:43:59;17.00;;;11.13;;
1380;SDS011;684;48.342;10.096;2022-12-07T05:46:26;20.47;;;12.53;;
1380;SDS011;684;48.342;10.096;2022-12-07T05:48:53;18.87;;;11.50;;
1380;SDS011;684;48.342;10.096;2022-12-07T05:51:20;23.50;;;14.37;;
1380;SDS011;684;48.342;10.096;2022-12-07T05:53:47;19.57;;;12.10;;
1380;SDS011;684;48.342;10.096;2022-12-07T05:56:13;18.97;;;11.97;;
1380;SDS011;684;48.342;10.096;2022-12-07T05:58:40;18.60;;;10.90;;
1380;SDS011;684;48.342;10.096;2022-12-07T06:01:26;17.00;;;11.07;;
1380;SDS011;684;48.342;10.096;2022-12-07T06:03:53;18.40;;;11.20;;
1380;SDS011;684;48.342;10.096;2022-12-07T06:06:20;17.80;;;10.87;;
1380;SDS011;684;48.342;10.096;2022-12-07T06:08:46;19.90;;;11.90;;
1380;SDS011;684;48.342;10.096;2022-12-07T06:11:13;18.43;;;11.60;;
1380;SDS011;684;48.342;10.096;2022-12-07T06:13:58;17.43;;;10.67;;
1380;SDS011;684;48.342;10.096;2022-12-07T06:16:26;18.43;;;10.37;;
1380;SDS011;684;48.342;10.096;2022-12-07T06:18:53;16.90;;;10.20;;
1380;SDS011;684;48.342;10.096;2022-12-07T06:21:20;15.00;;;10.37;;
1380;SDS011;684;48.342;10.096;2022-12-07T06:23:47;17.70;;;10.27;;
1380;SDS011;684;48.342;10.096;2022-12-07T06:26:13;20.33;;;10.40;;
1380;SDS011;684;48.342;10.096;2022-12-07T06:28:40;17.20;;;9.87;;
1380;SDS011;684;48.342;10.096;2022-12-07T06:31:07;15.00;;;8.90;;
1380;SDS011;684;48.342;10.096;2022-12-07T06:33:36;18.17;;;9.20;;
1380;SDS011;684;48.342;10.096;2022-12-07T06:36:03;16.10;;;9.27;;
1380;SDS011;684;48.342;10.096;2022-12-07T06:38:30;17.33;;;10.50;;
1380;SDS011;684;48.342;10.096;2022-12-07T06:40:57;16.53;;;10.47;;
1380;SDS011;684;48.342;10.096;2022-12-07T06:43:23;14.87;;;9.90;;
1380;SDS011;684;48.342;10.096;2022-12-07T06:45:50;17.80;;;10.60;;
1380;SDS011;684;48.342;10.096;2022-12-07T06:48:17;16.63;;;11.20;;
1380;SDS011;684;48.342;10.096;2022-12-07T06:50:46;16.13;;;10.10;;
1380;SDS011;684;48.342;10.096;2022-12-07T06:53:14;22.33;;;13.60;;
1380;SDS011;684;48.342;10.096;2022-12-07T06:55:40;23.07;;;14.20;;
1380;SDS011;684;48.342;10.096;2022-12-07T06:58:07;20.33;;;12.30;;
1380;SDS011;684;48.342;10.096;2022-12-07T07:00:34;17.77;;;10.17;;
1380;SDS011;684;48.342;10.096;2022-12-07T07:03:02;20.80;;;13.57;;
1380;SDS011;684;48.342;10.096;2022-12-07T07:05:29;22.80;;;16.00;;
1380;SDS011;684;48.342;10.096;2022-12-07T07:07:57;25.83;;;17.17;;
1380;SDS011;684;48.342;10.096;2022-12-07T07:10:24;26.07;;;17.83;;
1380;SDS011;684;48.342;10.096;2022-12-07T07:12:51;18.17;;;12.63;;
1380;SDS011;684;48.342;10.096;2022-12-07T07:15:17;17.93;;;11.50;;
1380;SDS011;684;48.342;10.096;2022-12-07T07:17:47;32.93;;;11.17;;
1380;SDS011;684;48.342;10.096;2022-12-07T07:20:14;16.40;;;10.80;;
1380;SDS011;684;48.342;10.096;2022-12-07T07:22:41;19.90;;;11.00;;
1380;SDS011;684;48.342;10.096;2022-12-07T07:25:09;19.13;;;11.73;;
1380;SDS011;684;48.342;10.096;2022-12-07T07:27:36;18.87;;;11.20;;
1380;SDS011;684;48.342;10.096;2022-12-07T07:30:03;19.50;;;11.50;;
1380;SDS011;684;48.342;10.096;2022-12-07T07:32:31;21.17;;;11.40;;
1380;SDS011;684;48.342;10.096;2022-12-07T07:34:58;19.63;;;12.33;;
1380;SDS011;684;48.342;10.096;2022-12-07T07:37:25;19.60;;;12.40;;
1380;SDS011;684;48.342;10.096;2022-12-07T07:39:52;19.67;;;13.00;;
1380;SDS011;684;48.342;10.096;2022-12-07T07:42:21;20.20;;;14.30;;
1380;SDS011;684;48.342;10.096;2022-12-07T07:44:48;19.67;;;14.07;;
1380;SDS011;684;48.342;10.096;2022-12-07T07:47:15;20.77;;;15.07;;
1380;SDS011;684;48.342;10.096;2022-12-07T07:49:41;19.73;;;11.43;;
1380;SDS011;684;48.342;10.096;2022-12-07T07:52:09;19.13;;;11.57;;
1380;SDS011;684;48.342;10.096;2022-12-07T07:54:36;17.07;;;10.73;;
1380;SDS011;684;48.342;10.096;2022-12-07T07:57:03;17.40;;;9.97;;
1380;SDS011;684;48.342;10.096;2022-12-07T07:59:31;15.63;;;10.23;;
1380;SDS011;684;48.342;10.096;2022-12-07T08:01:58;16.93;;;10.50;;
1380;SDS011;684;48.342;10.096;2022-12-07T08:04:25;17.60;;;10.87;;
1380;SDS011;684;48.342;10.096;2022-12-07T08:06:52;14.33;;;9.83;;
1380;SDS011;684;48.342;10.096;2022-12-07T08:09:18;15.03;;;10.37;;
1380;SDS011;684;48.342;10.096;2022-12-07T08:11:45;16.63;;;10.27;;
1380;SDS011;684;48.342;10.096;2022-12-07T08:14:12;15.27;;;10.17;;
1380;SDS011;684;48.342;10.096;2022-12-07T08:16:40;16.60;;;10.03;;
1380;SDS011;684;48.342;10.096;2022-12-07T08:19:07;16.73;;;10.97;;
1380;SDS011;684;48.342;10.096;2022-12-07T08:21:34;16.80;;;9.77;;
1380;SDS011;684;48.342;10.096;2022-12-07T08:24:01;14.40;;;9.43;;
1380;SDS011;684;48.342;10.096;2022-12-07T08:26:28;12.17;;;7.90;;
1380;SDS011;684;48.342;10.096;2022-12-07T08:28:55;13.20;;;9.10;;
1380;SDS011;684;48.342;10.096;2022-12-07T08:31:22;13.20;;;7.70;;
1380;SDS011;684;48.342;10.096;2022-12-07T08:33:50;11.90;;;8.07;;
1380;SDS011;684;48.342;10.096;2022-12-07T08:36:17;12.23;;;8.17;;
1380;SDS011;684;48.342;10.096;2022-12-07T08:38:44;12.47;;;7.70;;
1380;SDS011;684;48.342;10.096;2022-12-07T08:41:11;11.33;;;7.97;;
1380;SDS011;684;48.342;10.096;2022-12-07T08:43:38;11.10;;;7.30;;
1380;SDS011;684;48.342;10.096;2022-12-07T08:46:06;12.40;;;8.73;;
1380;SDS011;684;48.342;10.096;2022-12-07T08:48:36;11.20;;;7.67;;
1380;SDS011;684;48.342;10.096;2022-12-07T08:51:08;12.03;;;8.23;;
1380;SDS011;684;48.342;10.096;2022-12-07T08:53:35;12.40;;;8.10;;
1380;SDS011;684;48.342;10.096;2022-12-07T08:56:05;10.20;;;7.10;;
1380;SDS011;684;48.342;10.096;2022-12-07T08:58:33;11.00;;;8.17;;
1380;SDS011;684;48.342;10.096;2022-12-07T09:01:02;11.93;;;7.83;;
1380;SDS011;684;48.342;10.096;2022-12-07T09:03:30;9.50;;;6.53;;
1380;SDS011;684;48.342;10.096;2022-12-07T09:05:57;10.40;;;6.30;;
1380;SDS011;684;48.342;10.096;2022-12-07T09:08:26;9.97;;;6.50;;
1380;SDS011;684;48.342;10.096;2022-12-07T09:10:58;7.33;;;4.80;;
1380;SDS011;684;48.342;10.096;2022-12-07T09:13:25;10.20;;;6.50;;
1380;SDS011;684;48.342;10.096;2022-12-07T09:15:51;9.67;;;6.47;;
1380;SDS011;684;48.342;10.096;2022-12-07T09:18:18;9.47;;;6.27;;
1380;SDS011;684;48.342;10.096;2022-12-07T09:20:45;11.83;;;8.83;;
1380;SDS011;684;48.342;10.096;2022-12-07T09:23:12;11.40;;;8.37;;
1380;SDS011;684;48.342;10.096;2022-12-07T09:25:40;10.10;;;6.70;;
1380;SDS011;684;48.342;10.096;2022-12-07T09:28:07;10.60;;;8.10;;
1380;SDS011;684;48.342;10.096;2022-12-07T09:30:34;11.60;;;7.83;;
1380;SDS011;684;48.342;10.096;2022-12-07T09:33:01;11.20;;;7.63;;
1380;SDS011;684;48.342;10.096;2022-12-07T09:35:28;9.87;;;6.90;;
1380;SDS011;684;48.342;10.096;2022-12-07T09:37:55;10.93;;;7.10;;
1380;SDS011;684;48.342;10.096;2022-12-07T09:40:22;10.10;;;7.77;;
1380;SDS011;684;48.342;10.096;2022-12-07T09:42:52;13.50;;;8.03;;
1380;SDS011;684;48.342;10.096;2022-12-07T09:45:22;10.20;;;6.50;;
1380;SDS011;684;48.342;10.096;2022-12-07T09:47:50;9.73;;;6.77;;
1380;SDS011;684;48.342;10.096;2022-12-07T09:50:19;9.03;;;5.67;;
1380;SDS011;684;48.342;10.096;2022-12-07T09:52:49;13.10;;;7.37;;
1380;SDS011;684;48.342;10.096;2022-12-07T09:55:17;11.60;;;6.60;;
1380;SDS011;684;48.342;10.096;2022-12-07T09:57:51;9.03;;;6.33;;
1380;SDS011;684;48.342;10.096;2022-12-07T10:00:20;9.80;;;6.20;;
1380;SDS011;684;48.342;10.096;2022-12-07T10:02:49;10.47;;;6.40;;
1380;SDS011;684;48.342;10.096;2022-12-07T10:05:22;12.70;;;6.63;;
1380;SDS011;684;48.342;10.096;2022-12-07T10:07:53;10.70;;;6.30;;
1380;SDS011;684;48.342;10.096;2022-12-07T10:10:23;9.47;;;6.40;;
1380;SDS011;684;48.342;10.096;2022-12-07T10:12:55;9.90;;;6.30;;
1380;SDS011;684;48.342;10.096;2022-12-07T10:15:37;10.40;;;6.50;;
1380;SDS011;684;48.342;10.096;2022-12-07T10:18:17;9.83;;;6.90;;
1380;SDS011;684;48.342;10.096;2022-12-07T10:20:59;9.47;;;6.93;;
1380;SDS011;684;48.342;10.096;2022-12-07T10:23:32;8.63;;;5.70;;
1380;SDS011;684;48.342;10.096;2022-12-07T10:26:04;9.67;;;6.03;;
1380;SDS011;684;48.342;10.096;2022-12-07T10:28:48;11.07;;;6.07;;
1380;SDS011;684;48.342;10.096;2022-12-07T10:31:15;9.77;;;6.27;;
1380;SDS011;684;48.342;10.096;2022-12-07T10:33:48;9.00;;;5.90;;
1380;SDS011;684;48.342;10.096;2022-12-07T10:36:18;12.13;;;6.10;;
1380;SDS011;684;48.342;10.096;2022-12-07T10:38:47;11.40;;;7.10;;
1380;SDS011;684;48.342;10.096;2022-12-07T10:41:15;12.43;;;7.40;;
1380;SDS011;684;48.342;10.096;2022-12-07T10:43:53;12.90;;;6.87;;
1380;SDS011;684;48.342;10.096;2022-12-07T10:52:06;9.53;;;6.00;;
1380;SDS011;684;48.342;10.096;2022-12-07T10:54:40;11.50;;;6.73;;
1380;SDS011;684;48.342;10.096;2022-12-07T10:57:20;12.87;;;6.03;;
1380;SDS011;684;48.342;10.096;2022-12-07T11:00:00;9.97;;;5.70;;
1380;SDS011;684;48.342;10.096;2022-12-07T11:02:35;9.63;;;5.87;;
1380;SDS011;684;48.342;10.096;2022-12-07T11:05:20;9.23;;;5.90;;
1380;SDS011;684;48.342;10.096;2022-12-07T11:07:57;9.53;;;5.83;;
1380;SDS011;684;48.342;10.096;2022-12-07T11:10:34;14.70;;;6.70;;
1380;SDS011;684;48.342;10.096;2022-12-07T11:13:15;9.63;;;5.97;;
1380;SDS011;684;48.342;10.096;2022-12-07T11:15:55;10.90;;;5.07;;
1380;SDS011;684;48.342;10.096;2022-12-07T11:18:50;8.73;;;5.00;;
1380;SDS011;684;48.342;10.096;2022-12-07T11:21:26;7.83;;;5.07;;
1380;SDS011;684;48.342;10.096;2022-12-07T11:24:01;8.30;;;5.33;;
1380;SDS011;684;48.342;10.096;2022-12-07T11:26:40;9.77;;;5.77;;
1380;SDS011;684;48.342;10.096;2022-12-07T11:29:26;8.77;;;5.63;;
1380;SDS011;684;48.342;10.096;2022-12-07T11:32:07;8.13;;;4.80;;
1380;SDS011;684;48.342;10.096;2022-12-07T11:34:45;8.23;;;4.80;;
1380;SDS011;684;48.342;10.096;2022-12-07T11:37:18;8.93;;;5.60;;
1380;SDS011;684;48.342;10.096;2022-12-07T11:39:50;9.73;;;5.10;;
1380;SDS011;684;48.342;10.096;2022-12-07T11:42:20;8.00;;;5.10;;
1380;SDS011;684;48.342;10.096;2022-12-07T11:44:50;9.63;;;5.77;;
1380;SDS011;684;48.342;10.096;2022-12-07T11:47:25;7.93;;;4.90;;
1380;SDS011;684;48.342;10.096;2022-12-07T11:49:56;10.40;;;5.47;;
1380;SDS011;684;48.342;10.096;2022-12-07T11:52:30;8.30;;;4.90;;
1380;SDS011;684;48.342;10.096;2022-12-07T11:55:07;10.57;;;5.67;;
1380;SDS011;684;48.342;10.096;2022-12-07T11:57:45;7.87;;;4.17;;
1380;SDS011;684;48.342;10.096;2022-12-07T12:00:17;7.87;;;4.40;;
1380;SDS011;684;48.342;10.096;2022-12-07T12:02:48;8.43;;;4.27;;
1380;SDS011;684;48.342;10.096;2022-12-07T12:05:21;8.37;;;5.07;;
1380;SDS011;684;48.342;10.096;2022-12-07T12:07:50;6.80;;;4.20;;
1380;SDS011;684;48.342;10.096;2022-12-07T12:10:27;9.17;;;5.10;;
1380;SDS011;684;48.342;10.096;2022-12-07T12:13:24;7.60;;;3.83;;
1380;SDS011;684;48.342;10.096;2022-12-07T12:16:17;7.23;;;4.40;;
1380;SDS011;684;48.342;10.096;2022-12-07T12:19:15;8.00;;;4.10;;
1380;SDS011;684;48.342;10.096;2022-12-07T12:21:49;5.53;;;3.07;;
1380;SDS011;684;48.342;10.096;2022-12-07T12:24:22;6.50;;;3.23;;
1380;SDS011;684;48.342;10.096;2022-12-07T12:26:52;6.80;;;3.17;;
1380;SDS011;684;48.342;10.096;2022-12-07T12:29:26;7.63;;;3.90;;
1380;SDS011;684;48.342;10.096;2022-12-07T12:32:07;6.60;;;3.20;;
1380;SDS011;684;48.342;10.096;2022-12-07T12:34:42;5.87;;;3.20;;
1380;SDS011;684;48.342;10.096;2022-12-07T12:37:41;6.30;;;3.27;;
1380;SDS011;684;48.342;10.096;2022-12-07T12:43:26;6.13;;;3.60;;
1380;SDS011;684;48.342;10.096;2022-12-07T12:55:17;6.80;;;3.30;;
1380;SDS011;684;48.342;10.096;2022-12-07T13:04:25;6.30;;;2.73;;
1380;SDS011;684;48.342;10.096;2022-12-07T13:07:03;5.63;;;2.80;;
1380;SDS011;684;48.342;10.096;2022-12-07T13:09:35;7.03;;;2.90;;
1380;SDS011;684;48.342;10.096;2022-12-07T13:12:04;7.63;;;3.17;;
1380;SDS011;684;48.342;10.096;2022-12-07T13:14:39;9.03;;;4.20;;
1380;SDS011;684;48.342;10.096;2022-12-07T13:23:23;6.87;;;3.20;;
1380;SDS011;684;48.342;10.096;2022-12-07T13:25:57;6.87;;;3.27;;
1380;SDS011;684;48.342;10.096;2022-12-07T13:28:40;5.43;;;2.63;;
1380;SDS011;684;48.342;10.096;2022-12-07T13:31:11;6.30;;;3.10;;
1380;SDS011;684;48.342;10.096;2022-12-07T13:33:50;5.60;;;2.50;;
1380;SDS011;684;48.342;10.096;2022-12-07T13:36:21;5.80;;;2.80;;
1380;SDS011;684;48.342;10.096;2022-12-07T13:38:51;6.20;;;2.97;;
1380;SDS011;684;48.342;10.096;2022-12-07T13:41:20;5.33;;;2.50;;
1380;SDS011;684;48.342;10.096;2022-12-07T13:43:51;6.60;;;3.60;;
1380;SDS011;684;48.342;10.096;2022-12-07T13:46:20;5.77;;;2.83;;
1380;SDS011;684;48.342;10.096;2022-12-07T13:48:51;6.80;;;3.23;;
1380;SDS011;684;48.342;10.096;2022-12-07T13:51:21;6.80;;;2.93;;
1380;SDS011;684;48.342;10.096;2022-12-07T13:53:50;7.37;;;3.57;;
1380;SDS011;684;48.342;10.096;2022-12-07T13:56:18;6.90;;;3.20;;
1380;SDS011;684;48.342;10.096;2022-12-07T13:58:48;6.90;;;3.43;;
1380;SDS011;684;48.342;10.096;2022-12-07T14:01:17;6.63;;;3.33;;
1380;SDS011;684;48.342;10.096;2022-12-07T14:03:44;7.80;;;3.23;;
1380;SDS011;684;48.342;10.096;2022-12-07T14:06:22;6.70;;;3.43;;
1380;SDS011;684;48.342;10.096;2022-12-07T14:09:06;7.50;;;3.57;;
1380;SDS011;684;48.342;10.096;2022-12-07T14:11:34;6.63;;;3.20;;
1380;SDS011;684;48.342;10.096;2022-12-07T14:14:03;8.63;;;3.30;;
1380;SDS011;684;48.342;10.096;2022-12-07T14:16:31;6.17;;;2.87;;
1380;SDS011;684;48.342;10.096;2022-12-07T14:19:00;6.70;;;3.87;;
1380;SDS011;684;48.342;10.096;2022-12-07T14:21:29;6.47;;;3.57;;
1380;SDS011;684;48.342;10.096;2022-12-07T14:24:06;7.27;;;3.10;;
1380;SDS011;684;48.342;10.096;2022-12-07T14:26:36;5.80;;;3.20;;
1380;SDS011;684;48.342;10.096;2022-12-07T14:29:29;6.53;;;2.93;;
1380;SDS011;684;48.342;10.096;2022-12-07T14:32:17;7.70;;;4.43;;
1380;SDS011;684;48.342;10.096;2022-12-07T14:34:56;8.10;;;2.97;;
1380;SDS011;684;48.342;10.096;2022-12-07T14:37:28;6.70;;;3.20;;
1380;SDS011;684;48.342;10.096;2022-12-07T14:39:55;5.40;;;2.33;;
1380;SDS011;684;48.342;10.096;2022-12-07T14:42:23;6.00;;;2.57;;
1380;SDS011;684;48.342;10.096;2022-12-07T14:44:55;7.93;;;3.07;;
1380;SDS011;684;48.342;10.096;2022-12-07T14:47:22;6.30;;;3.00;;
1380;SDS011;684;48.342;10.096;2022-12-07T14:49:49;6.07;;;2.70;;
1380;SDS011;684;48.342;10.096;2022-12-07T14:52:18;7.07;;;3.07;;
1380;SDS011;684;48.342;10.096;2022-12-07T14:54:48;4.80;;;2.37;;
1380;SDS011;684;48.342;10.096;2022-12-07T14:57:14;6.80;;;2.50;;
1380;SDS011;684;48.342;10.096;2022-12-07T14:59:41;7.90;;;2.20;;
1380;SDS011;684;48.342;10.096;2022-12-07T15:02:10;5.70;;;2.90;;
1380;SDS011;684;48.342;10.096;2022-12-07T15:04:41;6.90;;;2.90;;
1380;SDS011;684;48.342;10.096;2022-12-07T15:07:10;7.23;;;2.77;;
1380;SDS011;684;48.342;10.096;2022-12-07T15:09:42;6.37;;;3.20;;
1380;SDS011;684;48.342;10.096;2022-12-07T15:12:09;6.67;;;2.73;;
1380;SDS011;684;48.342;10.096;2022-12-07T15:14:36;7.70;;;3.00;;
1380;SDS011;684;48.342;10.096;2022-12-07T15:17:03;12.83;;;3.83;;
1380;SDS011;684;48.342;10.096;2022-12-07T15:19:31;7.70;;;3.37;;
1380;SDS011;684;48.342;10.096;2022-12-07T15:21:58;7.03;;;3.43;;
1380;SDS011;684;48.342;10.096;2022-12-07T15:24:25;5.87;;;2.87;;
1380;SDS011;684;48.342;10.096;2022-12-07T15:26:52;10.57;;;5.97;;
1380;SDS011;684;48.342;10.096;2022-12-07T15:29:19;8.33;;;4.00;;
1380;SDS011;684;48.342;10.096;2022-12-07T15:31:47;6.87;;;3.23;;
1380;SDS011;684;48.342;10.096;2022-12-07T15:34:15;9.43;;;4.20;;
1380;SDS011;684;48.342;10.096;2022-12-07T15:36:43;8.30;;;3.20;;
1380;SDS011;684;48.342;10.096;2022-12-07T15:39:10;7.80;;;3.50;;
1380;SDS011;684;48.342;10.096;2022-12-07T15:41:37;11.27;;;5.57;;
1380;SDS011;684;48.342;10.096;2022-12-07T15:44:04;10.10;;;5.53;;
1380;SDS011;684;48.342;10.096;2022-12-07T15:46:49;8.60;;;4.00;;
1380;SDS011;684;48.342;10.096;2022-12-07T15:49:16;7.30;;;3.60;;
1380;SDS011;684;48.342;10.096;2022-12-07T15:51:46;7.90;;;3.13;;